Time;durP1;ratioP1;P1;durP2;ratioP2;P2;SDS_P1;SDS_P2;PMS_P1;PMS_P2;Temp;Humidity;BMP_temperature;BMP_pressure;BME280_temperature;BME280_humidity;BME280_pressure;Samples;Min_cycle;Max_cycle;Signal;HPM_P1;HPM_P2
2023/01/27 00:00:15;;;;;;;17.00;9.00;;;6.00;99.90;;;;;;5032106;28;20622;-63
2023/01/27 00:02:42;;;;;;;15.88;9.07;;;6.00;99.90;;;;;;5031198;28;20485;-63
2023/01/27 00:05:10;;;;;;;14.82;8.77;;;5.90;99.90;;;;;;5031753;28;20575;-63
2023/01/27 00:07:36;;;;;;;17.55;9.52;;;5.80;99.90;;;;;;5031200;28;20209;-64
2023/01/27 00:10:02;;;;;;;15.20;9.70;;;5.90;99.90;;;;;;5031963;28;20262;-64
2023/01/27 00:15:14;;;;;;;11.57;9.15;;;6.10;99.90;;;;;;5032072;28;20162;-64
2023/01/27 00:17:40;;;;;;;16.67;9.77;;;6.20;99.90;;;;;;5030723;28;20586;-64
2023/01/27 00:20:07;;;;;;;15.07;9.27;;;6.20;99.90;;;;;;5031894;28;20210;-64
2023/01/27 00:25:18;;;;;;;13.88;9.32;;;6.10;99.90;;;;;;5032055;28;20531;-65
2023/01/27 00:27:44;;;;;;;15.60;10.27;;;6.10;99.90;;;;;;5050973;28;20171;-65
2023/01/27 00:30:11;;;;;;;21.45;11.00;;;6.10;99.90;;;;;;5051446;28;20423;-64
2023/01/27 00:35:21;;;;;;;18.35;9.00;;;6.40;99.90;;;;;;5031761;28;20870;-64
2023/01/27 00:37:47;;;;;;;14.83;8.47;;;6.40;99.90;;;;;;5030966;28;20292;-64
2023/01/27 00:40:14;;;;;;;13.33;9.27;;;6.60;99.90;;;;;;5038086;28;20230;-64
2023/01/27 00:42:40;;;;;;;11.07;7.95;;;6.60;99.90;;;;;;5054679;28;20690;-64
2023/01/27 00:47:52;;;;;;;13.17;7.43;;;6.60;99.90;;;;;;5049392;28;20178;-64
2023/01/27 00:50:20;;;;;;;9.63;6.93;;;6.60;99.90;;;;;;5052207;28;20418;-64
2023/01/27 00:52:47;;;;;;;11.90;7.50;;;6.60;99.90;;;;;;5054398;28;20402;-64
2023/01/27 00:55:14;;;;;;;14.60;7.70;;;6.60;99.90;;;;;;5055082;28;20444;-64
2023/01/27 00:57:42;;;;;;;16.70;8.67;;;6.50;99.90;;;;;;5054312;28;20574;-64
2023/01/27 01:00:09;;;;;;;15.50;7.87;;;6.50;99.90;;;;;;5055237;28;20412;-64
2023/01/27 01:02:35;;;;;;;13.60;7.53;;;6.50;99.90;;;;;;5036231;28;20538;-64
2023/01/27 01:05:01;;;;;;;12.07;8.27;;;6.60;99.90;;;;;;5038123;28;20435;-64
2023/01/27 01:07:27;;;;;;;14.27;9.50;;;6.60;99.90;;;;;;5034655;28;20754;-70
2023/01/27 01:09:52;;;;;;;17.90;10.30;;;6.50;99.90;;;;;;5034538;28;20413;-65
2023/01/27 01:12:18;;;;;;;18.87;9.50;;;6.50;99.90;;;;;;5017160;28;20184;-64
2023/01/27 01:14:44;;;;;;;13.10;9.27;;;6.40;99.90;;;;;;5034174;28;20203;-64
2023/01/27 01:17:09;;;;;;;16.83;10.70;;;6.40;99.90;;;;;;5013161;28;20265;-64
2023/01/27 01:19:35;;;;;;;13.37;8.70;;;6.60;99.90;;;;;;5034327;28;20189;-64
2023/01/27 01:22:01;;;;;;;14.57;8.73;;;6.50;99.90;;;;;;5049201;28;20248;-64
2023/01/27 01:24:26;;;;;;;14.50;8.17;;;6.60;99.90;;;;;;5054121;28;20189;-69
2023/01/27 01:26:52;;;;;;;11.13;7.77;;;6.60;99.90;;;;;;5054134;28;20640;-64
2023/01/27 01:29:18;;;;;;;13.10;8.50;;;6.40;99.90;;;;;;5054550;28;20187;-64
2023/01/27 01:31:44;;;;;;;9.83;7.47;;;6.40;99.90;;;;;;5052487;28;20256;-64
2023/01/27 01:34:09;;;;;;;9.53;6.87;;;6.20;99.90;;;;;;5054487;28;20252;-64
2023/01/27 01:36:35;;;;;;;8.73;7.00;;;6.20;99.90;;;;;;5053620;28;20175;-64
2023/01/27 01:39:01;;;;;;;9.90;6.73;;;6.20;99.90;;;;;;5036767;28;20228;-64
2023/01/27 01:41:26;;;;;;;9.23;7.00;;;6.20;99.90;;;;;;5053834;28;20222;-64
2023/01/27 01:43:52;;;;;;;13.07;7.67;;;6.20;99.90;;;;;;5053693;28;20190;-64
2023/01/27 01:46:21;;;;;;;13.82;7.25;;;6.30;99.90;;;;;;5054224;28;20391;-64
2023/01/27 01:49:00;;;;;;;9.63;6.47;;;6.10;99.90;;;;;;5052448;28;20174;-64
2023/01/27 01:51:31;;;;;;;9.48;6.75;;;6.20;99.90;;;;;;5053502;28;20397;-63
2023/01/27 01:54:12;;;;;;;8.95;6.35;;;6.00;99.90;;;;;;5047422;28;20178;-63
2023/01/27 01:56:46;;;;;;;9.93;7.57;;;5.90;99.90;;;;;;5053601;28;20249;-65
2023/01/27 01:59:35;;;;;;;11.80;7.88;;;5.80;99.90;;;;;;5042423;28;20217;-64
2023/01/27 02:02:07;;;;;;;10.67;7.57;;;5.80;99.90;;;;;;5015777;28;20678;-64
2023/01/27 02:04:41;;;;;;;11.70;7.32;;;5.80;99.90;;;;;;5015988;28;20425;-65
2023/01/27 02:07:23;;;;;;;13.77;8.63;;;5.80;99.90;;;;;;5034497;28;20254;-64
2023/01/27 02:09:48;;;;;;;9.45;7.20;;;5.80;99.90;;;;;;5033574;28;20685;-65
2023/01/27 02:12:14;;;;;;;12.70;9.53;;;5.80;99.90;;;;;;5034801;28;20222;-64
2023/01/27 02:14:40;;;;;;;13.27;8.23;;;5.90;99.90;;;;;;5033237;28;20261;-64
2023/01/27 02:17:07;;;;;;;12.50;8.30;;;5.90;99.90;;;;;;5045493;28;20175;-65
2023/01/27 02:20:02;;;;;;;10.30;7.05;;;5.90;99.90;;;;;;5053411;28;20312;-65
2023/01/27 02:22:37;;;;;;;11.73;8.27;;;6.00;99.90;;;;;;5054116;28;20187;-64
2023/01/27 02:25:20;;;;;;;13.18;8.23;;;6.10;99.90;;;;;;5036328;28;20166;-65
2023/01/27 02:27:46;;;;;;;12.32;7.72;;;6.10;99.90;;;;;;5053316;28;20162;-64
2023/01/27 02:30:11;;;;;;;13.50;7.83;;;6.00;99.90;;;;;;5019095;28;20198;-65
2023/01/27 02:32:37;;;;;;;9.60;7.10;;;6.00;99.90;;;;;;5033247;28;20180;-64
2023/01/27 02:35:07;;;;;;;11.50;7.77;;;5.90;99.90;;;;;;5033849;28;20175;-64
2023/01/27 02:37:33;;;;;;;11.57;7.78;;;5.70;99.90;;;;;;5033018;28;20187;-65
2023/01/27 02:40:00;;;;;;;11.60;8.13;;;5.80;99.90;;;;;;5033351;28;20175;-64
2023/01/27 02:42:27;;;;;;;13.40;8.00;;;5.80;99.90;;;;;;5033859;28;20202;-64
2023/01/27 02:44:52;;;;;;;9.98;7.20;;;5.80;99.90;;;;;;5032988;28;20647;-64
2023/01/27 02:47:18;;;;;;;11.43;8.13;;;5.90;99.90;;;;;;5034072;28;20185;-64
2023/01/27 02:49:44;;;;;;;9.63;6.93;;;5.80;99.90;;;;;;5032936;28;20174;-65
2023/01/27 02:52:09;;;;;;;10.50;8.10;;;5.90;99.90;;;;;;5033465;28;20473;-64
2023/01/27 02:54:35;;;;;;;11.33;8.07;;;6.00;99.90;;;;;;5052519;28;20179;-64
2023/01/27 02:57:01;;;;;;;11.63;7.97;;;6.10;99.90;;;;;;5053493;28;20170;-66
2023/01/27 02:59:26;;;;;;;14.30;8.50;;;6.00;99.90;;;;;;5050741;28;20178;-65
2023/01/27 03:01:52;;;;;;;11.80;8.10;;;6.00;99.90;;;;;;5041411;28;20233;-64
2023/01/27 03:04:18;;;;;;;13.73;8.93;;;6.00;99.90;;;;;;5051403;28;20235;-64
2023/01/27 03:06:43;;;;;;;11.73;8.40;;;5.80;99.90;;;;;;5018870;28;20851;-66
2023/01/27 03:09:09;;;;;;;10.93;7.63;;;5.90;99.90;;;;;;5032792;28;20221;-64
2023/01/27 03:14:19;;;;;;;12.10;8.18;;;5.80;99.90;;;;;;5033098;28;20265;-64
2023/01/27 03:19:29;;;;;;;9.55;7.13;;;5.60;99.90;;;;;;5033531;28;20209;-64
2023/01/27 03:21:55;;;;;;;12.03;8.50;;;5.70;99.90;;;;;;5032256;28;20229;-64
2023/01/27 03:24:21;;;;;;;10.23;7.07;;;5.60;99.90;;;;;;5032577;28;20206;-64
2023/01/27 03:26:47;;;;;;;10.13;7.88;;;5.80;99.90;;;;;;5032292;28;20376;-64
2023/01/27 03:31:59;;;;;;;10.95;7.90;;;5.60;99.90;;;;;;5032251;28;20253;-64
2023/01/27 03:34:25;;;;;;;12.55;8.20;;;5.80;99.90;;;;;;5032743;28;20177;-64
2023/01/27 03:47:50;;;;;;;10.77;7.57;;;5.90;99.90;;;;;;5067411;28;20166;-65
2023/01/27 03:50:18;;;;;;;8.25;7.07;;;5.90;99.90;;;;;;5062425;28;20193;-64
2023/01/27 03:53:01;;;;;;;10.80;6.72;;;5.90;99.90;;;;;;5070058;28;20189;-65
2023/01/27 03:55:31;;;;;;;10.18;6.90;;;5.90;99.90;;;;;;5068285;28;20178;-64
2023/01/27 03:58:04;;;;;;;9.40;7.20;;;5.80;99.90;;;;;;5058972;28;20174;-64
2023/01/27 04:00:31;;;;;;;12.07;6.95;;;5.70;99.90;;;;;;5062559;28;20564;-64
2023/01/27 04:08:25;;;;;;;10.35;7.10;;;5.80;99.90;;;;;;5064395;28;20191;-64
2023/01/27 04:11:53;;;;;;;10.27;7.70;;;5.80;99.90;;;;;;5054411;28;20185;-64
2023/01/27 04:13:37;;;;;;;8.57;6.68;;;5.70;99.90;;;;;;5051532;28;20183;-70
2023/01/27 04:16:03;;;;;;;8.32;6.43;;;5.80;99.90;;;;;;5068041;28;20205;-64
2023/01/27 04:18:28;;;;;;;9.67;8.07;;;5.80;99.90;;;;;;5073386;28;20214;-64
2023/01/27 04:20:54;;;;;;;9.10;6.73;;;5.80;99.90;;;;;;5030587;28;20185;-64
2023/01/27 04:23:20;;;;;;;10.87;7.30;;;5.80;99.90;;;;;;5066533;28;20230;-64
2023/01/27 04:25:46;;;;;;;8.37;6.97;;;5.90;99.90;;;;;;5070818;28;20185;-64
2023/01/27 04:28:11;;;;;;;10.13;6.97;;;5.90;99.90;;;;;;5061149;28;20186;-65
2023/01/27 04:30:37;;;;;;;9.67;7.13;;;5.90;99.90;;;;;;5064793;28;20181;-69
2023/01/27 04:33:03;;;;;;;8.53;6.93;;;5.90;99.90;;;;;;5070424;28;20182;-65
2023/01/27 04:35:29;;;;;;;10.32;7.20;;;5.90;99.90;;;;;;5071505;28;20216;-65
2023/01/27 04:37:55;;;;;;;10.10;8.00;;;6.00;99.90;;;;;;5047131;28;20214;-65
2023/01/27 04:40:20;;;;;;;9.97;7.63;;;6.00;99.90;;;;;;5059442;28;20471;-65
2023/01/27 04:42:46;;;;;;;9.47;8.40;;;6.10;99.90;;;;;;5052351;28;20300;-66
2023/01/27 04:45:12;;;;;;;9.80;7.07;;;6.10;99.90;;;;;;5036733;28;20191;-65
2023/01/27 04:47:37;;;;;;;11.50;7.77;;;6.10;99.90;;;;;;5054523;28;20647;-68
2023/01/27 04:50:03;;;;;;;10.30;8.27;;;6.20;99.90;;;;;;5048470;28;20186;-64
2023/01/27 04:52:29;;;;;;;12.57;8.07;;;6.30;99.90;;;;;;5038723;28;20578;-64
2023/01/27 04:54:55;;;;;;;13.60;8.50;;;6.30;99.90;;;;;;5037766;28;20197;-64
2023/01/27 04:57:20;;;;;;;17.53;9.07;;;6.20;99.90;;;;;;5054919;28;20619;-65
2023/01/27 04:59:46;;;;;;;11.83;8.00;;;6.20;99.90;;;;;;5053093;28;20264;-65
2023/01/27 05:02:12;;;;;;;10.93;7.80;;;6.20;99.90;;;;;;5043485;28;20215;-65
2023/01/27 05:04:37;;;;;;;13.70;9.10;;;6.20;99.90;;;;;;5034678;28;20187;-65
2023/01/27 05:07:04;;;;;;;10.63;8.40;;;6.10;99.90;;;;;;5036905;28;20281;-65
2023/01/27 05:09:30;;;;;;;11.93;8.65;;;6.20;99.90;;;;;;5052331;28;20182;-63
2023/01/27 05:11:56;;;;;;;13.97;8.40;;;6.30;99.90;;;;;;5052450;28;20182;-63
2023/01/27 05:14:22;;;;;;;13.40;8.70;;;6.30;99.90;;;;;;5054875;28;20194;-64
2023/01/27 05:16:48;;;;;;;14.95;9.02;;;6.10;99.90;;;;;;5054034;28;20174;-64
2023/01/27 05:19:13;;;;;;;15.13;9.00;;;6.00;99.90;;;;;;5054841;28;20289;-64
2023/01/27 05:21:39;;;;;;;16.03;8.27;;;6.00;99.90;;;;;;5054680;28;20310;-63
2023/01/27 05:24:05;;;;;;;17.90;10.00;;;6.10;99.90;;;;;;5053775;28;20186;-63
2023/01/27 05:26:31;;;;;;;13.67;8.40;;;6.00;99.90;;;;;;5050806;28;20186;-63
2023/01/27 05:28:57;;;;;;;16.53;9.57;;;5.90;99.90;;;;;;5031072;28;20741;-64
2023/01/27 05:31:26;;;;;;;17.40;10.38;;;5.90;99.90;;;;;;5034775;28;20186;-63
2023/01/27 05:33:53;;;;;;;13.48;9.77;;;5.90;99.90;;;;;;5033867;28;20237;-63
2023/01/27 05:36:22;;;;;;;11.97;9.30;;;5.90;99.90;;;;;;5041491;28;20179;-63
2023/01/27 05:38:48;;;;;;;17.23;9.50;;;6.00;99.90;;;;;;5045059;28;20417;-64
2023/01/27 05:41:15;;;;;;;11.60;7.83;;;5.90;99.90;;;;;;5040477;28;20249;-64
2023/01/27 05:43:42;;;;;;;16.53;9.53;;;5.90;99.90;;;;;;5061096;28;20460;-64
2023/01/27 05:46:14;;;;;;;16.83;9.60;;;6.00;99.90;;;;;;5055250;28;20426;-63
2023/01/27 05:48:43;;;;;;;15.35;9.55;;;6.00;99.90;;;;;;5056807;28;20435;-64
2023/01/27 05:51:10;;;;;;;18.92;9.60;;;5.80;99.90;;;;;;5060484;28;20268;-64
2023/01/27 05:53:36;;;;;;;17.48;9.15;;;5.80;99.90;;;;;;5067694;28;20181;-64
2023/01/27 05:56:02;;;;;;;15.23;9.60;;;5.80;99.90;;;;;;5067189;28;20785;-64
2023/01/27 05:58:30;;;;;;;16.35;9.45;;;5.90;99.90;;;;;;5053766;28;20650;-64
2023/01/27 06:00:56;;;;;;;16.97;9.47;;;5.90;99.90;;;;;;5065527;28;20177;-63
2023/01/27 06:03:22;;;;;;;18.25;9.55;;;5.90;99.90;;;;;;5058887;28;20487;-63
2023/01/27 06:05:51;;;;;;;13.35;8.60;;;5.80;99.90;;;;;;5054747;28;20185;-63
2023/01/27 06:08:17;;;;;;;14.38;7.97;;;5.70;99.90;;;;;;5063482;28;20182;-64
2023/01/27 06:10:43;;;;;;;11.77;7.73;;;5.80;99.90;;;;;;5054204;28;20197;-65
2023/01/27 06:13:09;;;;;;;11.93;8.43;;;5.80;99.90;;;;;;5053911;28;20812;-63
2023/01/27 06:15:34;;;;;;;13.17;9.20;;;5.80;99.90;;;;;;5054272;28;20511;-63
2023/01/27 06:18:00;;;;;;;9.90;7.50;;;6.00;99.90;;;;;;5053481;28;20179;-64
2023/01/27 06:20:26;;;;;;;11.53;8.13;;;5.90;99.90;;;;;;5054087;28;20172;-64
2023/01/27 06:22:52;;;;;;;14.43;7.60;;;5.80;99.90;;;;;;5053419;28;20593;-65
2023/01/27 06:25:17;;;;;;;11.73;8.90;;;5.90;99.90;;;;;;5060527;28;20502;-65
2023/01/27 06:27:43;;;;;;;11.03;8.03;;;5.90;99.90;;;;;;5072768;28;20211;-70
2023/01/27 06:30:09;;;;;;;12.80;8.40;;;6.00;99.90;;;;;;5076168;28;20188;-65
2023/01/27 06:32:35;;;;;;;12.70;9.50;;;6.10;99.90;;;;;;5094121;28;20412;-64
2023/01/27 06:35:02;;;;;;;12.27;9.40;;;6.20;99.90;;;;;;5059216;28;20425;-65
2023/01/27 06:37:28;;;;;;;13.98;9.50;;;6.30;99.90;;;;;;5053611;28;20427;-65
2023/01/27 06:39:54;;;;;;;21.47;10.50;;;6.40;99.90;;;;;;5071022;28;20214;-66
2023/01/27 06:42:20;;;;;;;10.50;8.70;;;6.30;99.90;;;;;;5033755;28;20438;-65
2023/01/27 06:44:45;;;;;;;13.47;9.67;;;6.20;99.90;;;;;;5021392;28;20707;-66
2023/01/27 06:47:11;;;;;;;13.90;10.73;;;6.20;99.90;;;;;;5040631;28;20541;-65
2023/01/27 06:49:36;;;;;;;17.60;9.57;;;6.20;99.90;;;;;;5033588;28;20261;-67
2023/01/27 06:52:02;;;;;;;13.33;9.03;;;6.10;99.90;;;;;;5014771;28;20180;-65
2023/01/27 06:54:28;;;;;;;10.80;8.50;;;6.10;99.90;;;;;;5036608;28;20184;-64
2023/01/27 06:56:54;;;;;;;16.03;10.23;;;6.30;99.90;;;;;;5037940;28;20440;-65
2023/01/27 06:59:19;;;;;;;13.07;9.03;;;6.40;99.90;;;;;;5041448;28;20581;-64
2023/01/27 07:01:45;;;;;;;13.57;8.70;;;6.30;99.90;;;;;;5033669;28;20245;-70
2023/01/27 07:04:11;;;;;;;14.33;9.30;;;6.20;99.90;;;;;;5015800;28;20186;-63
2023/01/27 07:06:36;;;;;;;15.20;8.73;;;6.20;99.90;;;;;;5016383;28;20656;-63
2023/01/27 07:09:02;;;;;;;13.50;9.07;;;6.30;99.90;;;;;;5048803;28;20244;-67
2023/01/27 07:11:28;;;;;;;10.47;7.63;;;6.80;99.90;;;;;;5034992;28;20250;-66
2023/01/27 07:13:54;;;;;;;11.50;9.03;;;7.80;99.90;;;;;;5034552;28;20188;-67
2023/01/27 07:16:20;;;;;;;11.50;7.97;;;8.60;99.90;;;;;;5052945;28;20184;-66
2023/01/27 07:18:46;;;;;;;13.30;9.30;;;9.30;99.90;;;;;;5039139;28;20913;-67
2023/01/27 07:21:11;;;;;;;10.53;7.60;;;9.80;99.90;;;;;;5015295;28;20189;-67
2023/01/27 07:23:37;;;;;;;9.93;7.73;;;10.30;99.90;;;;;;5020224;28;20489;-67
2023/01/27 07:26:03;;;;;;;9.33;7.53;;;10.70;99.90;;;;;;5031982;28;20253;-68
2023/01/27 07:28:29;;;;;;;9.73;7.63;;;11.00;99.90;;;;;;5018859;28;20183;-67
2023/01/27 07:30:59;;;;;;;10.83;8.40;;;11.20;99.90;;;;;;5051886;28;20405;-67
2023/01/27 07:33:24;;;;;;;9.90;8.13;;;11.60;99.90;;;;;;5041675;28;20425;-67
2023/01/27 07:35:50;;;;;;;12.50;7.50;;;11.90;99.90;;;;;;5033414;28;20944;-68
2023/01/27 07:38:16;;;;;;;10.63;7.57;;;11.90;99.90;;;;;;5017182;28;20200;-65
2023/01/27 07:40:42;;;;;;;7.83;6.47;;;11.90;99.90;;;;;;5049084;28;20235;-65
2023/01/27 07:43:10;;;;;;;7.17;6.30;;;10.80;99.90;;;;;;5039640;28;20237;-65
2023/01/27 07:45:35;;;;;;;10.00;8.13;;;10.10;99.90;;;;;;5024710;28;20690;-65
2023/01/27 07:48:04;;;;;;;10.53;7.80;;;9.70;99.90;;;;;;5048336;28;20515;-65
2023/01/27 07:50:29;;;;;;;10.30;7.77;;;9.20;99.90;;;;;;5049323;28;20185;-68
2023/01/27 07:53:00;;;;;;;8.17;6.93;;;9.10;99.90;;;;;;5051542;28;20415;-65
2023/01/27 07:55:25;;;;;;;7.43;6.40;;;8.90;99.90;;;;;;5048138;28;20204;-65
2023/01/27 07:57:55;;;;;;;8.13;7.17;;;8.70;99.90;;;;;;5016348;28;20511;-65
2023/01/27 08:00:21;;;;;;;9.43;8.20;;;8.40;99.90;;;;;;5042035;28;20677;-64
2023/01/27 08:02:54;;;;;;;7.90;7.10;;;8.10;99.90;;;;;;5050523;28;20572;-65
2023/01/27 08:05:21;;;;;;;7.53;6.27;;;8.10;99.90;;;;;;5038653;28;20524;-65
2023/01/27 08:07:47;;;;;;;8.87;7.33;;;8.00;99.90;;;;;;5032399;28;20409;-65
2023/01/27 08:10:13;;;;;;;7.63;6.90;;;7.80;99.90;;;;;;5032083;28;20417;-65
2023/01/27 08:12:39;;;;;;;8.20;7.17;;;7.60;99.90;;;;;;5032539;28;20815;-64
2023/01/27 08:15:05;;;;;;;9.13;8.20;;;7.60;99.90;;;;;;5031812;28;20177;-65
2023/01/27 08:17:30;;;;;;;8.80;7.90;;;7.60;99.90;;;;;;5032368;28;20184;-65
2023/01/27 08:19:56;;;;;;;8.60;7.70;;;7.60;99.90;;;;;;5031658;28;20415;-64
2023/01/27 08:22:22;;;;;;;9.60;7.87;;;7.50;99.90;;;;;;5032240;28;20208;-65
2023/01/27 08:24:50;;;;;;;9.43;8.53;;;7.40;99.90;;;;;;5032378;28;20188;-64
2023/01/27 08:27:16;;;;;;;8.50;7.70;;;7.40;99.90;;;;;;5032101;28;20223;-65
2023/01/27 08:29:42;;;;;;;8.40;7.10;;;7.40;99.90;;;;;;5032341;28;20779;-65
2023/01/27 08:32:09;;;;;;;9.27;8.00;;;7.10;99.90;;;;;;5031325;28;20428;-64
2023/01/27 08:34:35;;;;;;;8.07;7.27;;;7.10;99.90;;;;;;5014707;28;20498;-64
2023/01/27 08:37:02;;;;;;;9.03;7.77;;;7.10;99.90;;;;;;4997643;28;20452;-64
2023/01/27 08:39:28;;;;;;;9.93;9.00;;;7.10;99.90;;;;;;5032083;28;20422;-64
2023/01/27 08:41:53;;;;;;;10.87;8.90;;;7.20;99.90;;;;;;5045113;28;20475;-65
2023/01/27 08:44:19;;;;;;;9.43;8.43;;;7.20;99.90;;;;;;5050776;28;20433;-64
2023/01/27 08:46:45;;;;;;;9.33;8.30;;;7.20;99.90;;;;;;5050903;28;20172;-65
2023/01/27 08:49:13;;;;;;;9.27;8.43;;;7.30;99.90;;;;;;5051432;28;20180;-64
2023/01/27 08:51:39;;;;;;;10.50;8.80;;;7.20;99.90;;;;;;5051922;28;20434;-64
2023/01/27 08:54:05;;;;;;;12.20;10.03;;;7.20;99.90;;;;;;5051370;28;20457;-64
2023/01/27 08:56:31;;;;;;;10.23;9.20;;;7.10;99.90;;;;;;5051952;28;20498;-64
2023/01/27 08:58:57;;;;;;;13.20;9.97;;;7.00;99.90;;;;;;5050090;28;20496;-64
2023/01/27 09:01:22;;;;;;;16.30;10.70;;;6.90;99.90;;;;;;5052997;28;20591;-64
2023/01/27 09:03:48;;;;;;;11.43;10.23;;;7.00;99.90;;;;;;5054197;28;20214;-64
2023/01/27 09:06:15;;;;;;;11.27;10.20;;;7.10;99.90;;;;;;5054682;28;20562;-64
2023/01/27 09:08:42;;;;;;;15.53;10.73;;;7.10;99.90;;;;;;5053931;28;20405;-65
2023/01/27 09:11:15;;;;;;;9.27;8.27;;;7.00;99.90;;;;;;5054810;28;20414;-64
2023/01/27 09:13:41;;;;;;;10.07;9.07;;;7.00;99.90;;;;;;5038141;28;20407;-65
2023/01/27 09:16:08;;;;;;;12.53;9.87;;;7.00;99.90;;;;;;5054665;28;20407;-64
2023/01/27 09:18:34;;;;;;;9.70;8.80;;;7.10;99.90;;;;;;5055302;28;20411;-64
2023/01/27 09:21:04;;;;;;;9.60;8.80;;;7.40;99.90;;;;;;5053942;28;20417;-64
2023/01/27 09:23:31;;;;;;;9.67;8.77;;;7.00;99.90;;;;;;5054790;28;20515;-64
2023/01/27 09:25:57;;;;;;;8.43;7.30;;;7.10;99.90;;;;;;5054123;28;20402;-65
2023/01/27 09:28:23;;;;;;;7.90;6.87;;;7.10;99.90;;;;;;5054717;28;20391;-65
2023/01/27 09:30:48;;;;;;;8.30;6.57;;;7.10;99.90;;;;;;5054085;28;20389;-65
2023/01/27 09:33:14;;;;;;;11.40;8.10;;;7.10;99.90;;;;;;5054242;28;20208;-65
2023/01/27 09:35:50;;;;;;;9.00;8.10;;;7.00;99.90;;;;;;5054665;28;20175;-64
2023/01/27 09:38:21;;;;;;;10.17;7.17;;;6.80;99.90;;;;;;5054297;28;20399;-64
2023/01/27 09:41:30;;;;;;;9.93;7.67;;;6.80;99.90;;;;;;5053236;28;20472;-64
2023/01/27 09:44:25;;;;;;;9.30;7.57;;;6.80;99.90;;;;;;5054148;28;20466;-65
2023/01/27 09:47:06;;;;;;;8.27;7.40;;;6.70;99.90;;;;;;5030394;28;20451;-64
2023/01/27 09:49:47;;;;;;;8.00;6.90;;;6.90;99.90;;;;;;5054698;28;20417;-64
2023/01/27 09:52:13;;;;;;;8.27;7.40;;;6.90;99.90;;;;;;5053794;28;20490;-64
2023/01/27 09:54:53;;;;;;;8.20;7.40;;;6.80;99.90;;;;;;5054253;28;20515;-64
2023/01/27 09:57:56;;;;;;;7.23;6.50;;;6.80;99.90;;;;;;5053974;28;20160;-64
2023/01/27 10:00:43;;;;;;;9.10;7.47;;;7.00;99.90;;;;;;5054409;28;20437;-64
2023/01/27 10:03:35;;;;;;;9.83;7.47;;;7.10;99.90;;;;;;5052614;28;20447;-64
2023/01/27 10:06:38;;;;;;;8.50;7.43;;;7.10;99.90;;;;;;5035926;28;20923;-64
2023/01/27 10:09:38;;;;;;;8.70;6.60;;;7.20;99.90;;;;;;5053514;28;20395;-64
2023/01/27 10:12:25;;;;;;;6.80;6.20;;;7.20;99.90;;;;;;5053560;28;20442;-64
2023/01/27 10:14:56;;;;;;;6.53;6.00;;;7.30;99.90;;;;;;5053981;28;20394;-64
2023/01/27 10:17:25;;;;;;;7.10;6.40;;;7.30;99.90;;;;;;5054111;28;20862;-64
2023/01/27 10:20:03;;;;;;;7.67;6.50;;;7.30;99.90;;;;;;5054153;28;20452;-64
2023/01/27 10:23:02;;;;;;;8.00;7.27;;;7.20;99.90;;;;;;5054001;28;20430;-64
2023/01/27 10:25:56;;;;;;;8.20;7.40;;;7.10;99.90;;;;;;5053731;28;20408;-64
2023/01/27 10:28:27;;;;;;;7.23;6.43;;;7.20;99.90;;;;;;5054226;28;20754;-64
2023/01/27 10:31:01;;;;;;;7.03;6.30;;;7.30;99.90;;;;;;5053927;28;20438;-64
2023/01/27 10:33:57;;;;;;;6.67;6.00;;;7.30;99.90;;;;;;5053928;28;20890;-64
2023/01/27 10:36:26;;;;;;;5.93;5.33;;;7.40;99.90;;;;;;5053328;28;20436;-64
2023/01/27 10:39:13;;;;;;;7.00;6.40;;;7.50;99.90;;;;;;5053749;28;20406;-64
2023/01/27 10:42:03;;;;;;;7.33;6.63;;;7.40;99.90;;;;;;5037595;28;20441;-64
2023/01/27 10:45:02;;;;;;;6.77;6.07;;;7.50;99.90;;;;;;5033835;28;20578;-64
2023/01/27 10:47:48;;;;;;;7.70;7.00;;;7.60;99.90;;;;;;5033876;28;20888;-64
2023/01/27 10:50:42;;;;;;;10.00;7.53;;;7.70;99.90;;;;;;5031259;28;20432;-64
2023/01/27 10:53:18;;;;;;;6.87;6.20;;;7.80;99.90;;;;;;5024997;28;20435;-64
2023/01/27 10:56:08;;;;;;;8.77;7.20;;;7.80;99.90;;;;;;5033708;28;20438;-64
2023/01/27 10:58:46;;;;;;;7.30;6.60;;;7.80;99.90;;;;;;5015913;28;20408;-64
2023/01/27 11:01:15;;;;;;;7.73;6.77;;;7.80;99.90;;;;;;4998783;28;20408;-64
2023/01/27 11:03:46;;;;;;;8.07;6.60;;;7.90;99.90;;;;;;5032928;28;21033;-67
2023/01/27 11:06:22;;;;;;;8.20;6.90;;;7.70;99.90;;;;;;5032418;28;20396;-64
2023/01/27 11:08:52;;;;;;;7.93;6.47;;;7.70;99.90;;;;;;5016081;28;20780;-64
2023/01/27 11:14:16;;;;;;;7.20;6.50;;;7.70;99.90;;;;;;5014966;28;20427;-64
2023/01/27 11:16:47;;;;;;;6.53;5.73;;;7.70;99.90;;;;;;5033250;28;20404;-65
2023/01/27 11:19:44;;;;;;;5.33;4.83;;;7.70;99.90;;;;;;5032567;28;20403;-64
2023/01/27 11:22:27;;;;;;;6.20;5.60;;;7.70;99.90;;;;;;5014639;28;20452;-65
2023/01/27 11:25:21;;;;;;;6.50;5.40;;;7.80;99.90;;;;;;5032132;28;20429;-65
2023/01/27 11:28:02;;;;;;;7.53;6.10;;;7.80;99.90;;;;;;5032868;28;20404;-64
2023/01/27 11:30:45;;;;;;;8.90;6.03;;;7.80;99.90;;;;;;5033092;28;20412;-65
2023/01/27 11:33:28;;;;;;;7.07;6.37;;;7.90;99.90;;;;;;5032367;28;20400;-65
2023/01/27 11:35:56;;;;;;;6.90;5.93;;;7.90;99.90;;;;;;5032843;28;20457;-65
2023/01/27 11:38:22;;;;;;;7.47;5.90;;;7.90;99.90;;;;;;5014350;28;20450;-64
2023/01/27 11:40:51;;;;;;;6.53;6.03;;;7.70;99.90;;;;;;5032478;28;20462;-65
2023/01/27 11:43:22;;;;;;;11.07;7.30;;;7.80;99.90;;;;;;5032177;28;20498;-65
2023/01/27 11:45:54;;;;;;;7.73;6.50;;;7.90;99.90;;;;;;5032705;28;20440;-65
2023/01/27 11:48:20;;;;;;;9.20;6.10;;;7.90;99.90;;;;;;5032019;28;20447;-65
2023/01/27 11:50:46;;;;;;;6.70;5.73;;;7.80;99.90;;;;;;5014819;28;20460;-65
2023/01/27 11:53:35;;;;;;;6.20;5.60;;;7.80;99.90;;;;;;5032162;28;20431;-64
2023/01/27 11:56:09;;;;;;;6.67;6.17;;;7.80;99.90;;;;;;5032484;28;20389;-65
2023/01/27 11:58:44;;;;;;;6.20;5.73;;;7.80;99.90;;;;;;5032636;28;20407;-64
2023/01/27 12:01:16;;;;;;;7.50;6.13;;;7.70;99.90;;;;;;5031988;28;20408;-65
2023/01/27 12:03:57;;;;;;;6.13;5.63;;;7.80;99.90;;;;;;4998422;28;20462;-64
2023/01/27 12:06:46;;;;;;;6.87;6.27;;;7.70;99.90;;;;;;5032368;28;20771;-64
2023/01/27 12:09:33;;;;;;;5.77;5.37;;;7.50;99.90;;;;;;5014208;28;20499;-65
2023/01/27 12:12:21;;;;;;;5.73;5.30;;;7.50;99.90;;;;;;5032711;28;20741;-65
2023/01/27 12:14:55;;;;;;;5.90;5.40;;;7.60;99.90;;;;;;5032489;28;20416;-65
2023/01/27 12:17:40;;;;;;;6.53;5.60;;;7.60;99.90;;;;;;5031885;28;20411;-64
2023/01/27 12:20:21;;;;;;;6.70;5.57;;;7.60;99.90;;;;;;5032009;28;20413;-65
2023/01/27 12:22:53;;;;;;;5.13;4.70;;;7.70;99.90;;;;;;5014746;28;20497;-65
2023/01/27 12:25:28;;;;;;;5.80;5.30;;;7.70;99.90;;;;;;5031623;28;20422;-64
2023/01/27 12:27:58;;;;;;;5.80;5.30;;;7.50;99.90;;;;;;5032246;28;20494;-65
2023/01/27 12:30:28;;;;;;;5.50;5.00;;;7.60;99.90;;;;;;5014106;28;21052;-65
2023/01/27 12:32:56;;;;;;;6.10;5.43;;;7.60;99.90;;;;;;5014400;28;20415;-65
2023/01/27 12:35:34;;;;;;;6.77;6.00;;;7.70;99.90;;;;;;5032541;28;20889;-64
2023/01/27 12:38:12;;;;;;;5.73;5.17;;;7.70;99.90;;;;;;5036177;28;20400;-65
2023/01/27 12:40:41;;;;;;;5.67;5.00;;;7.70;99.90;;;;;;5036043;28;20467;-64
2023/01/27 12:43:12;;;;;;;5.07;4.57;;;7.80;99.90;;;;;;5035337;28;20429;-66
2023/01/27 12:45:38;;;;;;;4.90;4.60;;;7.80;99.90;;;;;;5035968;28;20746;-64
2023/01/27 12:48:15;;;;;;;5.20;4.80;;;7.70;99.90;;;;;;5035880;28;20888;-63
2023/01/27 12:51:14;;;;;;;5.10;4.37;;;7.80;99.90;;;;;;5018261;28;20407;-64
2023/01/27 12:53:42;;;;;;;7.00;5.83;;;7.80;99.90;;;;;;5009179;28;20431;-64
2023/01/27 12:56:22;;;;;;;4.93;4.60;;;7.80;99.90;;;;;;5034753;28;20449;-64
2023/01/27 12:58:54;;;;;;;9.00;4.50;;;7.80;99.90;;;;;;5035610;28;20815;-65
2023/01/27 13:01:25;;;;;;;4.00;3.67;;;7.80;99.90;;;;;;5017351;28;20430;-64
2023/01/27 13:03:57;;;;;;;4.20;3.90;;;7.80;99.90;;;;;;5035579;28;20444;-65
2023/01/27 13:06:32;;;;;;;4.37;4.07;;;7.80;99.90;;;;;;5034803;28;20465;-64
2023/01/27 13:09:00;;;;;;;4.33;4.03;;;7.80;99.90;;;;;;5002006;28;20790;-63
2023/01/27 13:11:36;;;;;;;4.50;4.20;;;8.00;99.90;;;;;;5046264;28;20443;-65
2023/01/27 13:14:05;;;;;;;4.43;4.13;;;8.00;99.90;;;;;;5040076;28;20464;-66
2023/01/27 13:16:31;;;;;;;4.20;3.80;;;8.00;99.90;;;;;;5050589;28;20622;-65
2023/01/27 13:18:59;;;;;;;4.70;4.40;;;8.00;99.90;;;;;;5045705;28;20987;-64
2023/01/27 13:21:36;;;;;;;5.47;5.03;;;8.10;99.90;;;;;;5040802;28;20212;-65
2023/01/27 13:24:18;;;;;;;4.13;3.80;;;8.20;99.90;;;;;;5007316;28;20960;-65
2023/01/27 13:26:45;;;;;;;5.10;4.70;;;8.20;99.90;;;;;;5017482;28;20437;-64
2023/01/27 13:29:17;;;;;;;5.07;4.67;;;8.20;99.90;;;;;;5040824;28;20411;-65
2023/01/27 13:32:09;;;;;;;4.20;3.90;;;8.10;99.90;;;;;;5055251;28;20457;-64
2023/01/27 13:34:54;;;;;;;5.67;5.27;;;7.80;99.90;;;;;;5019802;28;20971;-65
2023/01/27 13:37:27;;;;;;;5.17;4.77;;;7.70;99.90;;;;;;5034207;28;20441;-64
2023/01/27 13:40:13;;;;;;;4.23;3.93;;;7.40;99.90;;;;;;5034410;28;20795;-66
2023/01/27 13:42:50;;;;;;;4.90;4.60;;;7.50;99.90;;;;;;5014137;28;20506;-64
2023/01/27 13:45:40;;;;;;;4.33;4.03;;;7.50;99.90;;;;;;5034345;28;20411;-64